Wetterdaten: Mittwoch, 13.05.2015
Datum Zeit Auen-Temp. Temp gefhlt Luftfeuchte Luftdruck Regen Wind Richtung Richtung Taupunkt Windben
13.05.2015 00:00 15,1 C 16,1 C 55 % 1019,5 hPa 0,0 mm 5,4 km/h (1 Bft) N-NO 22 6,1 C 8,5 km/h (2 Bft)
13.05.2015 00:05 15,9 C 16,3 C 55 % 1019,5 hPa 0,0 mm 4,9 km/h (1 Bft) S 180 6,9 C 11,1 km/h (2 Bft)
13.05.2015 00:10 16,7 C 16,9 C 52 % 1019,5 hPa 0,0 mm 6,2 km/h (2 Bft) SW 225 6,8 C 13,2 km/h (3 Bft)
13.05.2015 00:15 17,3 C 17,4 C 50 % 1019,5 hPa 0,0 mm 7,3 km/h (2 Bft) SW 225 6,8 C 12,9 km/h (3 Bft)
13.05.2015 00:20 17,6 C 17,8 C 48 % 1019,5 hPa 0,0 mm 8,8 km/h (2 Bft) SW 225 6,5 C 13,7 km/h (3 Bft)
13.05.2015 00:25 17,5 C 17,9 C 48 % 1019,5 hPa 0,0 mm 8,0 km/h (2 Bft) SW 225 6,4 C 10,4 km/h (2 Bft)
13.05.2015 00:30 17,3 C 17,9 C 48 % 1019,5 hPa 0,0 mm 8,0 km/h (2 Bft) SW 225 6,2 C 16,6 km/h (3 Bft)
13.05.2015 00:35 17,1 C 17,7 C 48 % 1019,6 hPa 0,0 mm 8,3 km/h (2 Bft) S 180 6,0 C 6,0 km/h (2 Bft)
13.05.2015 00:40 16,3 C 17,6 C 49 % 1019,6 hPa 0,0 mm 7,0 km/h (2 Bft) N 360 5,6 C 2,8 km/h (1 Bft)
13.05.2015 00:45 14,6 C 16,5 C 52 % 1019,6 hPa 0,0 mm 3,6 km/h (1 Bft) N 360 4,9 C 0,0 km/h (0 Bft)
13.05.2015 00:50 13,7 C 15,0 C 55 % 1019,6 hPa 0,0 mm 0,3 km/h (0 Bft) W 270 4,8 C 4,9 km/h (1 Bft)
13.05.2015 00:55 14,4 C 15,0 C 55 % 1019,9 hPa 0,0 mm 1,6 km/h (1 Bft) S-SW 202 5,5 C 4,4 km/h (1 Bft)
13.05.2015 01:00 13,9 C 15,5 C 57 % 1019,9 hPa 0,0 mm 2,6 km/h (1 Bft) SW 225 5,5 C 0,0 km/h (0 Bft)
13.05.2015 01:05 14,9 C 15,6 C 56 % 1019,9 hPa 0,0 mm 3,4 km/h (1 Bft) W-SW 247 6,2 C 5,7 km/h (1 Bft)
13.05.2015 01:10 17,1 C 17,0 C 51 % 1019,9 hPa 0,0 mm 5,2 km/h (1 Bft) S-SW 202 6,9 C 6,7 km/h (2 Bft)
13.05.2015 01:15 17,5 C 17,4 C 49 % 1019,9 hPa 0,0 mm 6,0 km/h (2 Bft) W 270 6,7 C 17,3 km/h (3 Bft)
13.05.2015 01:20 17,7 C 17,7 C 48 % 1019,9 hPa 0,0 mm 6,5 km/h (2 Bft) W-SW 247 6,6 C 11,4 km/h (2 Bft)
13.05.2015 01:25 17,9 C 17,9 C 47 % 1019,9 hPa 0,0 mm 6,5 km/h (2 Bft) SW 225 6,4 C 5,4 km/h (1 Bft)
13.05.2015 01:30 17,6 C 18,0 C 47 % 1019,9 hPa 0,0 mm 5,2 km/h (1 Bft) S 180 6,2 C 7,3 km/h (2 Bft)
13.05.2015 01:35 17,9 C 17,9 C 47 % 1019,9 hPa 0,0 mm 4,9 km/h (1 Bft) W 270 6,4 C 14,0 km/h (3 Bft)
13.05.2015 01:40 17,8 C 18,0 C 47 % 1019,9 hPa 0,0 mm 5,2 km/h (1 Bft) W-SW 247 6,3 C 7,3 km/h (2 Bft)
13.05.2015 01:45 17,8 C 18,0 C 47 % 1019,9 hPa 0,0 mm 4,4 km/h (1 Bft) SW 225 6,3 C 6,0 km/h (2 Bft)
13.05.2015 01:50 18,1 C 18,1 C 46 % 1019,9 hPa 0,0 mm 4,4 km/h (1 Bft) W 270 6,3 C 7,8 km/h (2 Bft)
13.05.2015 01:55 18,1 C 18,1 C 46 % 1020,1 hPa 0,0 mm 4,9 km/h (1 Bft) S 180 6,3 C 4,1 km/h (1 Bft)
13.05.2015 02:00 18,0 C 18,0 C 46 % 1020,1 hPa 0,0 mm 4,7 km/h (1 Bft) W-SW 247 6,2 C 8,8 km/h (2 Bft)
13.05.2015 02:05 17,9 C 18,0 C 46 % 1020,1 hPa 0,0 mm 4,4 km/h (1 Bft) S-SO 157 6,1 C 7,8 km/h (2 Bft)
13.05.2015 02:10 18,1 C 18,1 C 46 % 1020,1 hPa 0,0 mm 4,7 km/h (1 Bft) S 180 6,3 C 7,3 km/h (2 Bft)
13.05.2015 02:15 17,9 C 17,9 C 46 % 1020,1 hPa 0,0 mm 4,7 km/h (1 Bft) W-SW 247 6,1 C 3,6 km/h (1 Bft)
13.05.2015 02:20 17,8 C 17,8 C 46 % 1020,1 hPa 0,0 mm 4,1 km/h (1 Bft) SW 225 6,0 C 6,2 km/h (2 Bft)
13.05.2015 02:25 17,5 C 17,7 C 46 % 1020,1 hPa 0,0 mm 2,6 km/h (1 Bft) W 270 5,8 C 0,0 km/h (0 Bft)
13.05.2015 02:30 16,5 C 17,2 C 48 % 1020,1 hPa 0,0 mm 1,8 km/h (1 Bft) W-NW 292 5,5 C 4,7 km/h (1 Bft)
13.05.2015 02:35 16,5 C 16,8 C 48 % 1020,6 hPa 0,0 mm 2,6 km/h (1 Bft) W 270 5,5 C 2,8 km/h (1 Bft)
13.05.2015 02:40 16,4 C 16,4 C 49 % 1020,6 hPa 0,0 mm 2,8 km/h (1 Bft) S-SW 202 5,7 C 4,7 km/h (1 Bft)
13.05.2015 02:45 16,3 C 16,3 C 50 % 1020,6 hPa 0,0 mm 2,1 km/h (1 Bft) W 270 5,9 C 9,6 km/h (2 Bft)
13.05.2015 02:50 16,1 C 16,1 C 50 % 1020,6 hPa 0,0 mm 1,8 km/h (1 Bft) NW 315 5,7 C 0,0 km/h (0 Bft)
13.05.2015 02:55 15,8 C 15,8 C 52 % 1020,8 hPa 0,0 mm 1,3 km/h (1 Bft) W 270 6,0 C 0,0 km/h (0 Bft)
13.05.2015 03:00 15,4 C 15,4 C 53 % 1020,8 hPa 0,0 mm 0,0 km/h (0 Bft) W 270 5,9 C 0,0 km/h (0 Bft)
13.05.2015 03:05 15,1 C 15,3 C 53 % 1020,8 hPa 0,0 mm 0,0 km/h (0 Bft) W 270 5,6 C 0,0 km/h (0 Bft)
13.05.2015 03:10 15,3 C 15,2 C 56 % 1020,8 hPa 0,0 mm 0,0 km/h (0 Bft) W-SW 247 6,6 C 0,0 km/h (0 Bft)
13.05.2015 03:15 15,4 C 15,3 C 56 % 1020,8 hPa 0,0 mm 0,0 km/h (0 Bft) SW 225 6,7 C 0,0 km/h (0 Bft)
13.05.2015 03:20 15,0 C 15,0 C 56 % 1020,8 hPa 0,0 mm 0,0 km/h (0 Bft) S 180 6,3 C 0,0 km/h (0 Bft)
13.05.2015 03:25 14,7 C 14,9 C 57 % 1020,8 hPa 0,0 mm 0,0 km/h (0 Bft) S 180 6,3 C 0,0 km/h (0 Bft)
13.05.2015 03:30 14,7 C 14,7 C 58 % 1020,8 hPa 0,0 mm 0,0 km/h (0 Bft) S 180 6,5 C 0,0 km/h (0 Bft)
13.05.2015 03:35 14,6 C 14,5 C 59 % 1020,9 hPa 0,0 mm 0,3 km/h (0 Bft) S 180 6,7 C 4,7 km/h (1 Bft)
13.05.2015 03:40 15,6 C 15,4 C 61 % 1020,9 hPa 0,0 mm 2,8 km/h (1 Bft) S-SW 202 8,1 C 7,8 km/h (2 Bft)
13.05.2015 03:45 15,6 C 15,5 C 63 % 1020,9 hPa 0,0 mm 4,9 km/h (1 Bft) S 180 8,6 C 8,0 km/h (2 Bft)
13.05.2015 03:50 15,8 C 15,7 C 64 % 1020,9 hPa 0,0 mm 5,4 km/h (1 Bft) S 180 9,0 C 3,9 km/h (1 Bft)
13.05.2015 03:55 15,9 C 15,8 C 65 % 1020,8 hPa 0,0 mm 4,9 km/h (1 Bft) S 180 9,3 C 2,6 km/h (1 Bft)
13.05.2015 04:00 15,7 C 15,6 C 65 % 1020,8 hPa 0,0 mm 3,4 km/h (1 Bft) S 180 9,1 C 0,0 km/h (0 Bft)
13.05.2015 04:05 15,7 C 15,6 C 67 % 1020,8 hPa 0,0 mm 2,8 km/h (1 Bft) S 180 9,6 C 6,0 km/h (2 Bft)
13.05.2015 04:10 15,2 C 15,5 C 67 % 1020,8 hPa 0,0 mm 2,8 km/h (1 Bft) S 180 9,1 C 3,9 km/h (1 Bft)
13.05.2015 04:15 15,1 C 15,4 C 67 % 1020,7 hPa 0,0 mm 2,6 km/h (1 Bft) W-SW 247 9,0 C 0,0 km/h (0 Bft)
13.05.2015 04:20 14,3 C 14,9 C 66 % 1020,7 hPa 0,0 mm 1,0 km/h (0 Bft) W-SW 247 8,0 C 0,0 km/h (0 Bft)
13.05.2015 04:25 14,0 C 14,4 C 67 % 1020,7 hPa 0,0 mm 0,3 km/h (0 Bft) S-SO 157 8,0 C 0,0 km/h (0 Bft)
13.05.2015 04:30 14,2 C 14,2 C 70 % 1020,7 hPa 0,0 mm 0,3 km/h (0 Bft) SO 135 8,8 C 4,4 km/h (1 Bft)
13.05.2015 04:35 14,5 C 14,4 C 72 % 1020,6 hPa 0,0 mm 1,0 km/h (0 Bft) S-SO 157 9,5 C 0,0 km/h (0 Bft)
13.05.2015 04:40 14,5 C 14,6 C 70 % 1020,6 hPa 0,0 mm 1,0 km/h (0 Bft) SW 225 9,1 C 0,0 km/h (0 Bft)
13.05.2015 04:45 14,4 C 14,5 C 70 % 1020,6 hPa 0,0 mm 0,0 km/h (0 Bft) S 180 9,0 C 0,0 km/h (0 Bft)
13.05.2015 04:50 13,4 C 13,9 C 70 % 1020,6 hPa 0,0 mm 0,0 km/h (0 Bft) W-SW 247 8,0 C 0,0 km/h (0 Bft)
13.05.2015 04:55 13,1 C 13,3 C 73 % 1020,4 hPa 0,0 mm 0,0 km/h (0 Bft) S 180 8,4 C 0,0 km/h (0 Bft)
13.05.2015 05:00 13,0 C 12,9 C 72 % 1020,4 hPa 0,0 mm 0,0 km/h (0 Bft) S 180 8,1 C 0,0 km/h (0 Bft)
13.05.2015 05:05 12,9 C 12,8 C 74 % 1020,4 hPa 0,0 mm 0,0 km/h (0 Bft) S 180 8,4 C 0,0 km/h (0 Bft)
13.05.2015 05:10 13,0 C 12,8 C 74 % 1020,4 hPa 0,0 mm 0,0 km/h (0 Bft) S 180 8,5 C 0,0 km/h (0 Bft)
13.05.2015 05:15 13,2 C 12,9 C 75 % 1020,6 hPa 0,0 mm 0,0 km/h (0 Bft) S 180 8,9 C 0,0 km/h (0 Bft)
13.05.2015 05:20 13,5 C 13,1 C 77 % 1020,6 hPa 0,0 mm 0,0 km/h (0 Bft) S 180 9,5 C 0,0 km/h (0 Bft)
13.05.2015 05:25 13,4 C 13,1 C 74 % 1020,6 hPa 0,0 mm 0,3 km/h (0 Bft) S 180 8,9 C 3,1 km/h (1 Bft)
13.05.2015 05:30 13,2 C 13,0 C 76 % 1020,6 hPa 0,0 mm 0,3 km/h (0 Bft) SO 135 9,1 C 0,0 km/h (0 Bft)
13.05.2015 05:35 12,8 C 12,7 C 76 % 1020,6 hPa 0,0 mm 0,3 km/h (0 Bft) S 180 8,7 C 0,0 km/h (0 Bft)
13.05.2015 05:40 12,4 C 12,4 C 76 % 1020,6 hPa 0,0 mm 0,0 km/h (0 Bft) SO 135 8,3 C 0,0 km/h (0 Bft)
13.05.2015 05:45 12,5 C 12,4 C 76 % 1020,6 hPa 0,0 mm 0,0 km/h (0 Bft) SO 135 8,4 C 0,0 km/h (0 Bft)
13.05.2015 05:50 12,6 C 12,5 C 77 % 1020,6 hPa 0,0 mm 0,0 km/h (0 Bft) SO 135 8,7 C 0,0 km/h (0 Bft)
13.05.2015 05:55 12,8 C 12,7 C 78 % 1020,6 hPa 0,0 mm 0,0 km/h (0 Bft) SO 135 9,1 C 0,0 km/h (0 Bft)
13.05.2015 06:00 13,2 C 13,0 C 79 % 1020,6 hPa 0,0 mm 0,0 km/h (0 Bft) S 180 9,6 C 0,0 km/h (0 Bft)
13.05.2015 06:05 13,4 C 13,5 C 76 % 1020,6 hPa 0,0 mm 0,3 km/h (0 Bft) S 180 9,3 C 2,6 km/h (1 Bft)
13.05.2015 06:10 13,7 C 13,7 C 76 % 1020,6 hPa 0,0 mm 1,3 km/h (1 Bft) SO 135 9,5 C 0,0 km/h (0 Bft)
13.05.2015 06:15 13,3 C 13,5 C 78 % 1020,7 hPa 0,0 mm 0,8 km/h (0 Bft) O-NO 67 9,5 C 0,0 km/h (0 Bft)
13.05.2015 06:20 13,2 C 13,3 C 78 % 1020,7 hPa 0,0 mm 0,0 km/h (0 Bft) O 90 9,4 C 0,0 km/h (0 Bft)
13.05.2015 06:25 13,3 C 13,3 C 78 % 1020,7 hPa 0,0 mm 0,0 km/h (0 Bft) S-SO 157 9,5 C 0,0 km/h (0 Bft)
13.05.2015 06:30 13,6 C 13,8 C 76 % 1020,7 hPa 0,0 mm 0,0 km/h (0 Bft) S 180 9,4 C 0,0 km/h (0 Bft)
13.05.2015 06:35 14,0 C 14,1 C 76 % 1020,7 hPa 0,0 mm 0,5 km/h (0 Bft) W 270 9,8 C 3,6 km/h (1 Bft)
13.05.2015 06:40 14,4 C 14,5 C 75 % 1020,7 hPa 0,0 mm 0,5 km/h (0 Bft) O-SO 112 10,0 C 0,0 km/h (0 Bft)
13.05.2015 06:45 14,6 C 14,7 C 77 % 1020,7 hPa 0,0 mm 0,3 km/h (0 Bft) S-SW 202 10,6 C 0,0 km/h (0 Bft)
13.05.2015 06:50 14,6 C 14,9 C 76 % 1020,7 hPa 0,0 mm 0,0 km/h (0 Bft) S-SW 202 10,4 C 0,0 km/h (0 Bft)
13.05.2015 06:55 14,6 C 14,9 C 76 % 1020,7 hPa 0,0 mm 0,0 km/h (0 Bft) W-NW 292 10,4 C 0,0 km/h (0 Bft)
13.05.2015 07:00 14,2 C 14,9 C 76 % 1020,7 hPa 0,0 mm 0,3 km/h (0 Bft) N-NW 337 10,0 C 0,0 km/h (0 Bft)
13.05.2015 07:05 14,1 C 14,7 C 75 % 1020,7 hPa 0,0 mm 0,5 km/h (0 Bft) S 180 9,7 C 0,0 km/h (0 Bft)
13.05.2015 07:10 14,3 C 15,0 C 75 % 1020,7 hPa 0,0 mm 0,8 km/h (0 Bft) NW 315 9,9 C 0,0 km/h (0 Bft)
13.05.2015 07:15 14,4 C 15,2 C 75 % 1020,8 hPa 0,0 mm 0,5 km/h (0 Bft) N-NW 337 10,0 C 0,0 km/h (0 Bft)
13.05.2015 07:20 14,6 C 15,6 C 75 % 1020,8 hPa 0,0 mm 0,3 km/h (0 Bft) W 270 10,2 C 0,0 km/h (0 Bft)
13.05.2015 07:25 14,6 C 15,8 C 75 % 1020,8 hPa 0,0 mm 0,0 km/h (0 Bft) NW 315 10,2 C 0,0 km/h (0 Bft)
13.05.2015 07:30 14,8 C 15,8 C 75 % 1020,8 hPa 0,0 mm 0,0 km/h (0 Bft) N-NW 337 10,4 C 0,0 km/h (0 Bft)
13.05.2015 07:35 14,9 C 15,9 C 75 % 1020,6 hPa 0,0 mm 0,0 km/h (0 Bft) N-NW 337 10,5 C 0,0 km/h (0 Bft)
13.05.2015 07:40 15,2 C 16,6 C 75 % 1020,6 hPa 0,0 mm 0,5 km/h (0 Bft) N-NO 22 10,8 C 3,6 km/h (1 Bft)
13.05.2015 07:45 15,2 C 16,8 C 75 % 1020,6 hPa 0,0 mm 3,4 km/h (1 Bft) N-NO 22 10,8 C 7,8 km/h (2 Bft)
13.05.2015 07:50 15,1 C 16,6 C 75 % 1020,6 hPa 0,0 mm 6,5 km/h (2 Bft) NO 45 10,7 C 7,8 km/h (2 Bft)
13.05.2015 07:55 15,3 C 17,0 C 75 % 1020,4 hPa 0,0 mm 5,2 km/h (1 Bft) O-NO 67 10,9 C 3,1 km/h (1 Bft)
13.05.2015 08:00 15,6 C 17,9 C 75 % 1020,4 hPa 0,0 mm 3,1 km/h (1 Bft) NO 45 11,2 C 3,1 km/h (1 Bft)
13.05.2015 08:05 15,7 C 17,8 C 75 % 1020,4 hPa 0,0 mm 3,1 km/h (1 Bft) N-NO 22 11,3 C 4,1 km/h (1 Bft)
13.05.2015 08:10 15,8 C 18,4 C 75 % 1020,4 hPa 0,0 mm 3,6 km/h (1 Bft) O-NO 67 11,4 C 3,4 km/h (1 Bft)
13.05.2015 08:15 16,1 C 19,2 C 74 % 1020,5 hPa 0,0 mm 3,1 km/h (1 Bft) N-NO 22 11,5 C 3,1 km/h (1 Bft)
13.05.2015 08:20 16,2 C 19,8 C 73 % 1020,5 hPa 0,0 mm 3,1 km/h (1 Bft) N-NO 22 11,4 C 7,0 km/h (2 Bft)
13.05.2015 08:25 15,9 C 19,4 C 74 % 1020,5 hPa 0,0 mm 4,1 km/h (1 Bft) O-SO 112 11,3 C 4,7 km/h (1 Bft)
13.05.2015 08:30 15,9 C 18,5 C 74 % 1020,5 hPa 0,0 mm 3,9 km/h (1 Bft) O-NO 67 11,3 C 0,0 km/h (0 Bft)
13.05.2015 08:35 16,3 C 19,4 C 73 % 1020,4 hPa 0,0 mm 2,1 km/h (1 Bft) N-NW 337 11,4 C 0,0 km/h (0 Bft)
13.05.2015 08:40 16,5 C 19,2 C 73 % 1020,4 hPa 0,0 mm 1,8 km/h (1 Bft) O 90 11,6 C 4,1 km/h (1 Bft)
13.05.2015 08:45 16,5 C 19,5 C 73 % 1020,4 hPa 0,0 mm 2,1 km/h (1 Bft) N 360 11,6 C 0,0 km/h (0 Bft)
13.05.2015 08:50 16,6 C 19,4 C 73 % 1020,4 hPa 0,0 mm 2,1 km/h (1 Bft) NO 45 11,7 C 5,4 km/h (1 Bft)
13.05.2015 08:55 16,6 C 19,4 C 73 % 1020,7 hPa 0,0 mm 2,1 km/h (1 Bft) N-NO 22 11,7 C 6,0 km/h (2 Bft)
13.05.2015 09:00 16,7 C 20,2 C 72 % 1020,7 hPa 0,0 mm 3,1 km/h (1 Bft) NO 45 11,6 C 0,0 km/h (0 Bft)
13.05.2015 09:05 16,9 C 20,3 C 72 % 1020,7 hPa 0,0 mm 3,1 km/h (1 Bft) O-NO 67 11,8 C 4,1 km/h (1 Bft)
13.05.2015 09:10 17,3 C 20,8 C 72 % 1020,7 hPa 0,0 mm 3,6 km/h (1 Bft) N-NO 22 12,2 C 6,5 km/h (2 Bft)
13.05.2015 09:15 17,4 C 21,0 C 71 % 1020,2 hPa 0,0 mm 3,9 km/h (1 Bft) O-NO 67 12,1 C 7,3 km/h (2 Bft)
13.05.2015 09:20 16,9 C 20,0 C 72 % 1020,2 hPa 0,0 mm 5,7 km/h (1 Bft) NO 45 11,8 C 8,3 km/h (2 Bft)
13.05.2015 09:25 16,9 C 20,0 C 72 % 1020,2 hPa 0,0 mm 6,2 km/h (2 Bft) NO 45 11,8 C 11,9 km/h (2 Bft)
13.05.2015 09:30 17,1 C 20,7 C 72 % 1020,2 hPa 0,0 mm 6,0 km/h (2 Bft) O-NO 67 12,0 C 4,7 km/h (1 Bft)
13.05.2015 09:35 17,4 C 21,5 C 72 % 1020,1 hPa 0,0 mm 5,4 km/h (1 Bft) NO 45 12,3 C 9,3 km/h (2 Bft)
13.05.2015 09:40 17,7 C 22,3 C 71 % 1020,1 hPa 0,0 mm 4,7 km/h (1 Bft) NO 45 12,4 C 9,6 km/h (2 Bft)
13.05.2015 09:45 17,9 C 23,2 C 70 % 1020,1 hPa 0,0 mm 4,4 km/h (1 Bft) O-NO 67 12,3 C 12,4 km/h (3 Bft)
13.05.2015 09:50 18,6 C 24,2 C 70 % 1020,1 hPa 0,0 mm 4,1 km/h (1 Bft) NO 45 13,0 C 3,6 km/h (1 Bft)
13.05.2015 09:55 18,7 C 25,0 C 69 % 1020,1 hPa 0,0 mm 5,4 km/h (1 Bft) O-NO 67 12,9 C 6,7 km/h (2 Bft)
13.05.2015 10:00 18,4 C 24,2 C 69 % 1020,1 hPa 0,0 mm 7,0 km/h (2 Bft) NO 45 12,6 C 7,5 km/h (2 Bft)
13.05.2015 10:05 18,7 C 24,7 C 69 % 1020,1 hPa 0,0 mm 6,0 km/h (2 Bft) N-NO 22 12,9 C 4,9 km/h (1 Bft)
13.05.2015 10:10 19,1 C 25,2 C 68 % 1020,1 hPa 0,0 mm 4,7 km/h (1 Bft) NO 45 13,1 C 8,3 km/h (2 Bft)
13.05.2015 10:15 19,2 C 25,4 C 68 % 1019,9 hPa 0,0 mm 5,2 km/h (1 Bft) O-NO 67 13,1 C 7,3 km/h (2 Bft)
13.05.2015 10:20 19,1 C 25,7 C 67 % 1019,9 hPa 0,0 mm 5,4 km/h (1 Bft) O-SO 112 12,8 C 0,0 km/h (0 Bft)
13.05.2015 10:25 19,3 C 26,2 C 66 % 1019,9 hPa 0,0 mm 4,9 km/h (1 Bft) S 180 12,8 C 6,2 km/h (2 Bft)
13.05.2015 10:30 19,7 C 26,3 C 66 % 1019,9 hPa 0,0 mm 4,9 km/h (1 Bft) N-NO 22 13,2 C 8,0 km/h (2 Bft)
13.05.2015 10:35 19,8 C 26,3 C 65 % 1020,1 hPa 0,0 mm 5,4 km/h (1 Bft) W-SW 247 13,0 C 7,8 km/h (2 Bft)
13.05.2015 10:40 20,1 C 26,6 C 65 % 1020,1 hPa 0,0 mm 4,7 km/h (1 Bft) O-NO 67 13,3 C 4,4 km/h (1 Bft)
13.05.2015 10:45 20,1 C 26,8 C 65 % 1020,1 hPa 0,0 mm 4,1 km/h (1 Bft) O 90 13,3 C 5,7 km/h (1 Bft)
13.05.2015 10:50 19,8 C 26,0 C 65 % 1020,1 hPa 0,0 mm 4,9 km/h (1 Bft) O 90 13,0 C 7,3 km/h (2 Bft)
13.05.2015 10:55 19,9 C 25,6 C 65 % 1019,8 hPa 0,0 mm 6,2 km/h (2 Bft) NO 45 13,1 C 4,9 km/h (1 Bft)
13.05.2015 11:00 20,1 C 25,7 C 65 % 1019,8 hPa 0,0 mm 4,7 km/h (1 Bft) N-NW 337 13,3 C 4,7 km/h (1 Bft)
13.05.2015 11:05 20,5 C 26,0 C 64 % 1019,8 hPa 0,0 mm 4,7 km/h (1 Bft) N-NO 22 13,5 C 8,0 km/h (2 Bft)
13.05.2015 11:10 20,9 C 25,8 C 64 % 1019,8 hPa 0,0 mm 6,7 km/h (2 Bft) N-NW 337 13,8 C 10,1 km/h (2 Bft)
13.05.2015 11:15 21,1 C 26,0 C 63 % 1019,6 hPa 0,0 mm 6,7 km/h (2 Bft) N-NO 22 13,8 C 9,8 km/h (2 Bft)
13.05.2015 11:20 21,5 C 26,2 C 62 % 1019,6 hPa 0,0 mm 6,5 km/h (2 Bft) W-NW 292 13,9 C 6,5 km/h (2 Bft)
13.05.2015 11:25 21,7 C 26,3 C 61 % 1019,6 hPa 0,0 mm 7,5 km/h (2 Bft) N-NW 337 13,8 C 10,6 km/h (2 Bft)
13.05.2015 11:30 21,5 C 26,0 C 60 % 1019,6 hPa 0,0 mm 7,5 km/h (2 Bft) O-NO 67 13,4 C 7,3 km/h (2 Bft)
13.05.2015 11:35 21,5 C 26,0 C 60 % 1019,5 hPa 0,0 mm 8,0 km/h (2 Bft) W-NW 292 13,4 C 12,2 km/h (2 Bft)
13.05.2015 11:40 21,8 C 26,2 C 60 % 1019,5 hPa 0,0 mm 8,0 km/h (2 Bft) SO 135 13,7 C 3,1 km/h (1 Bft)
13.05.2015 11:45 21,9 C 26,3 C 59 % 1019,5 hPa 0,0 mm 7,8 km/h (2 Bft) NO 45 13,5 C 17,1 km/h (3 Bft)
13.05.2015 11:50 21,9 C 26,3 C 59 % 1019,5 hPa 0,0 mm 6,7 km/h (2 Bft) NO 45 13,5 C 8,0 km/h (2 Bft)
13.05.2015 11:55 22,2 C 26,4 C 59 % 1019,2 hPa 0,0 mm 7,8 km/h (2 Bft) W 270 13,8 C 9,1 km/h (2 Bft)
13.05.2015 12:00 22,5 C 26,6 C 58 % 1019,2 hPa 0,0 mm 8,0 km/h (2 Bft) SW 225 13,8 C 10,4 km/h (2 Bft)
13.05.2015 12:05 22,6 C 26,8 C 58 % 1019,2 hPa 0,0 mm 8,8 km/h (2 Bft) NW 315 13,9 C 12,2 km/h (2 Bft)
13.05.2015 12:10 22,7 C 27,0 C 57 % 1019,2 hPa 0,0 mm 8,8 km/h (2 Bft) W-NW 292 13,7 C 20,2 km/h (4 Bft)
13.05.2015 12:15 22,8 C 26,9 C 56 % 1019,1 hPa 0,0 mm 8,8 km/h (2 Bft) NW 315 13,6 C 13,7 km/h (3 Bft)
13.05.2015 12:20 22,8 C 26,8 C 56 % 1019,1 hPa 0,0 mm 8,8 km/h (2 Bft) SW 225 13,6 C 5,7 km/h (1 Bft)
13.05.2015 12:25 23,3 C 27,4 C 55 % 1019,1 hPa 0,0 mm 7,8 km/h (2 Bft) NW 315 13,7 C 7,5 km/h (2 Bft)
13.05.2015 12:30 23,5 C 27,3 C 54 % 1019,1 hPa 0,0 mm 7,5 km/h (2 Bft) NW 315 13,6 C 8,3 km/h (2 Bft)
13.05.2015 12:35 23,5 C 27,5 C 55 % 1018,8 hPa 0,0 mm 8,5 km/h (2 Bft) W-NW 292 13,9 C 9,1 km/h (2 Bft)
13.05.2015 12:40 23,7 C 27,8 C 55 % 1018,8 hPa 0,0 mm 7,0 km/h (2 Bft) W-NW 292 14,1 C 10,4 km/h (2 Bft)
13.05.2015 12:45 23,6 C 27,7 C 54 % 1018,8 hPa 0,0 mm 8,0 km/h (2 Bft) NW 315 13,7 C 15,0 km/h (3 Bft)
13.05.2015 12:50 24,0 C 27,9 C 55 % 1018,8 hPa 0,0 mm 9,6 km/h (2 Bft) S-SO 157 14,4 C 21,8 km/h (4 Bft)
13.05.2015 12:55 24,0 C 27,6 C 53 % 1018,7 hPa 0,0 mm 11,4 km/h (2 Bft) W-NW 292 13,8 C 15,3 km/h (3 Bft)
13.05.2015 13:00 23,3 C 26,2 C 53 % 1018,7 hPa 0,0 mm 13,5 km/h (3 Bft) W 270 13,2 C 23,8 km/h (4 Bft)
13.05.2015 13:05 23,4 C 25,9 C 53 % 1018,7 hPa 0,0 mm 11,7 km/h (2 Bft) W-NW 292 13,3 C 13,7 km/h (3 Bft)
13.05.2015 13:10 23,6 C 25,8 C 53 % 1018,7 hPa 0,0 mm 10,9 km/h (2 Bft) NW 315 13,4 C 21,0 km/h (4 Bft)
13.05.2015 13:15 23,9 C 25,9 C 51 % 1018,2 hPa 0,0 mm 13,7 km/h (3 Bft) W 270 13,1 C 26,7 km/h (4 Bft)
13.05.2015 13:20 23,8 C 25,7 C 51 % 1018,2 hPa 0,0 mm 15,3 km/h (3 Bft) NW 315 13,0 C 29,0 km/h (5 Bft)
13.05.2015 13:25 23,5 C 25,9 C 50 % 1018,2 hPa 0,0 mm 17,9 km/h (3 Bft) N-NW 337 12,5 C 20,5 km/h (4 Bft)
13.05.2015 13:30 23,2 C 25,4 C 52 % 1018,2 hPa 0,0 mm 15,0 km/h (3 Bft) W 270 12,8 C 32,4 km/h (5 Bft)
13.05.2015 13:35 23,3 C 25,7 C 53 % 1018,3 hPa 0,0 mm 11,4 km/h (2 Bft) W-NW 292 13,2 C 16,3 km/h (3 Bft)
13.05.2015 13:40 24,1 C 27,3 C 54 % 1018,3 hPa 0,0 mm 7,8 km/h (2 Bft) O-NO 67 14,2 C 8,0 km/h (2 Bft)
13.05.2015 13:45 23,9 C 27,3 C 54 % 1018,3 hPa 0,0 mm 7,5 km/h (2 Bft) W-NW 292 14,0 C 15,3 km/h (3 Bft)
13.05.2015 13:50 24,2 C 27,7 C 54 % 1018,3 hPa 0,0 mm 8,8 km/h (2 Bft) W-NW 292 14,3 C 18,4 km/h (3 Bft)
13.05.2015 13:55 24,2 C 27,6 C 52 % 1017,9 hPa 0,0 mm 11,4 km/h (2 Bft) W-NW 292 13,7 C 16,1 km/h (3 Bft)
13.05.2015 14:00 24,2 C 27,7 C 50 % 1017,9 hPa 0,0 mm 12,4 km/h (3 Bft) NW 315 13,1 C 16,8 km/h (3 Bft)
13.05.2015 14:05 24,3 C 27,7 C 50 % 1017,9 hPa 0,0 mm 12,2 km/h (2 Bft) NW 315 13,2 C 21,8 km/h (4 Bft)
13.05.2015 14:10 24,3 C 27,3 C 48 % 1017,9 hPa 0,0 mm 14,0 km/h (3 Bft) W-NW 292 12,6 C 18,4 km/h (3 Bft)
13.05.2015 14:15 24,4 C 27,4 C 49 % 1017,7 hPa 0,0 mm 14,0 km/h (3 Bft) W-NW 292 13,0 C 17,3 km/h (3 Bft)
13.05.2015 14:20 24,3 C 27,5 C 48 % 1017,7 hPa 0,0 mm 12,9 km/h (3 Bft) W-NW 292 12,6 C 7,8 km/h (2 Bft)
13.05.2015 14:25 24,4 C 27,5 C 48 % 1017,7 hPa 0,0 mm 12,2 km/h (2 Bft) N 360 12,7 C 10,4 km/h (2 Bft)
13.05.2015 14:30 24,7 C 27,5 C 49 % 1017,7 hPa 0,0 mm 11,9 km/h (2 Bft) W-NW 292 13,3 C 24,6 km/h (4 Bft)
13.05.2015 14:35 24,7 C 27,8 C 48 % 1017,4 hPa 0,0 mm 11,7 km/h (2 Bft) NW 315 12,9 C 11,7 km/h (2 Bft)
13.05.2015 14:40 24,6 C 28,1 C 48 % 1017,4 hPa 0,0 mm 10,4 km/h (2 Bft) O 90 12,8 C 11,7 km/h (2 Bft)
13.05.2015 14:45 24,8 C 28,1 C 48 % 1017,4 hPa 0,0 mm 11,9 km/h (2 Bft) NW 315 13,0 C 17,6 km/h (3 Bft)
13.05.2015 14:50 25,0 C 28,1 C 48 % 1017,4 hPa 0,0 mm 13,5 km/h (3 Bft) N 360 13,2 C 16,1 km/h (3 Bft)
13.05.2015 14:55 25,1 C 28,2 C 47 % 1017,0 hPa 0,0 mm 13,2 km/h (3 Bft) W-NW 292 13,0 C 20,5 km/h (4 Bft)
13.05.2015 15:00 24,4 C 27,1 C 47 % 1017,0 hPa 0,0 mm 12,7 km/h (3 Bft) W-NW 292 12,3 C 17,1 km/h (3 Bft)
13.05.2015 15:05 24,1 C 26,6 C 48 % 1017,0 hPa 0,0 mm 14,0 km/h (3 Bft) NW 315 12,4 C 13,2 km/h (3 Bft)
13.05.2015 15:10 23,2 C 25,2 C 48 % 1017,0 hPa 0,0 mm 13,7 km/h (3 Bft) NW 315 11,6 C 9,8 km/h (2 Bft)
13.05.2015 15:15 22,7 C 24,2 C 49 % 1016,9 hPa 0,0 mm 12,7 km/h (3 Bft) NW 315 11,4 C 18,1 km/h (3 Bft)
13.05.2015 15:20 22,3 C 23,1 C 51 % 1016,9 hPa 0,0 mm 10,1 km/h (2 Bft) W 270 11,7 C 13,5 km/h (3 Bft)
13.05.2015 15:25 22,2 C 22,8 C 52 % 1016,9 hPa 0,0 mm 9,8 km/h (2 Bft) N-NW 337 11,9 C 18,1 km/h (3 Bft)
13.05.2015 15:30 22,3 C 22,8 C 52 % 1016,9 hPa 0,0 mm 11,4 km/h (2 Bft) N-NW 337 12,0 C 21,8 km/h (4 Bft)
13.05.2015 15:35 22,2 C 22,9 C 52 % 1016,8 hPa 0,0 mm 13,5 km/h (3 Bft) W-NW 292 11,9 C 13,7 km/h (3 Bft)
13.05.2015 15:40 21,8 C 22,3 C 54 % 1016,8 hPa 0,0 mm 13,5 km/h (3 Bft) NW 315 12,1 C 21,5 km/h (4 Bft)
13.05.2015 15:45 21,5 C 22,0 C 54 % 1016,8 hPa 0,0 mm 12,7 km/h (3 Bft) W-SW 247 11,8 C 8,8 km/h (2 Bft)
13.05.2015 15:50 21,4 C 21,7 C 55 % 1016,8 hPa 0,0 mm 9,8 km/h (2 Bft) S-SO 157 12,0 C 0,0 km/h (0 Bft)
13.05.2015 15:55 21,4 C 22,0 C 55 % 1017,0 hPa 0,0 mm 6,7 km/h (2 Bft) W 270 12,0 C 5,4 km/h (1 Bft)
13.05.2015 16:00 21,8 C 22,6 C 55 % 1017,0 hPa 0,0 mm 7,8 km/h (2 Bft) W 270 12,4 C 10,1 km/h (2 Bft)
13.05.2015 16:05 22,0 C 23,8 C 55 % 1017,0 hPa 0,0 mm 8,3 km/h (2 Bft) NW 315 12,5 C 10,9 km/h (2 Bft)
13.05.2015 16:10 21,9 C 24,9 C 55 % 1017,0 hPa 0,0 mm 8,0 km/h (2 Bft) W-NW 292 12,4 C 10,6 km/h (2 Bft)
13.05.2015 16:15 21,6 C 23,5 C 55 % 1016,6 hPa 0,0 mm 9,6 km/h (2 Bft) W-NW 292 12,2 C 7,3 km/h (2 Bft)
13.05.2015 16:20 21,2 C 22,6 C 57 % 1016,6 hPa 0,0 mm 7,5 km/h (2 Bft) W-SW 247 12,3 C 3,4 km/h (1 Bft)
13.05.2015 16:25 20,6 C 20,6 C 59 % 1016,6 hPa 0,0 mm 4,7 km/h (1 Bft) W-SW 247 12,3 C 2,8 km/h (1 Bft)
13.05.2015 16:30 19,9 C 19,6 C 67 % 1016,6 hPa 0,0 mm 4,1 km/h (1 Bft) O-SO 112 13,6 C 4,4 km/h (1 Bft)
13.05.2015 16:35 19,4 C 19,3 C 65 % 1016,6 hPa 0,0 mm 4,1 km/h (1 Bft) N-NO 22 12,6 C 5,4 km/h (1 Bft)
13.05.2015 16:40 19,2 C 19,4 C 67 % 1016,6 hPa 0,0 mm 5,4 km/h (1 Bft) O-NO 67 12,9 C 11,7 km/h (2 Bft)
13.05.2015 16:45 19,2 C 19,4 C 67 % 1016,6 hPa 0,0 mm 7,0 km/h (2 Bft) NO 45 12,9 C 5,2 km/h (1 Bft)
13.05.2015 16:50 18,8 C 19,0 C 69 % 1016,6 hPa 0,0 mm 7,0 km/h (2 Bft) O-NO 67 13,0 C 5,2 km/h (1 Bft)
13.05.2015 16:55 18,5 C 18,9 C 71 % 1016,3 hPa 0,0 mm 5,4 km/h (1 Bft) O 90 13,1 C 3,4 km/h (1 Bft)
13.05.2015 17:00 18,7 C 18,9 C 69 % 1016,3 hPa 0,0 mm 4,1 km/h (1 Bft) O 90 12,9 C 3,6 km/h (1 Bft)
13.05.2015 17:05 18,7 C 18,9 C 69 % 1016,3 hPa 0,0 mm 2,8 km/h (1 Bft) O-NO 67 12,9 C 0,0 km/h (0 Bft)
13.05.2015 17:10 18,6 C 18,8 C 69 % 1016,3 hPa 0,0 mm 2,1 km/h (1 Bft) O 90 12,8 C 0,0 km/h (0 Bft)
13.05.2015 17:15 18,4 C 18,5 C 69 % 1015,8 hPa 0,0 mm 2,3 km/h (1 Bft) W-SW 247 12,6 C 0,0 km/h (0 Bft)
13.05.2015 17:20 18,3 C 18,3 C 68 % 1015,8 hPa 0,0 mm 1,0 km/h (0 Bft) W-SW 247 12,3 C 0,0 km/h (0 Bft)
13.05.2015 17:25 17,9 C 18,0 C 71 % 1015,8 hPa 0,0 mm 0,5 km/h (0 Bft) O 90 12,6 C 3,6 km/h (1 Bft)
13.05.2015 17:30 17,7 C 17,6 C 72 % 1015,8 hPa 0,0 mm 1,6 km/h (1 Bft) S 180 12,6 C 0,0 km/h (0 Bft)
13.05.2015 17:35 17,6 C 17,5 C 73 % 1015,8 hPa 0,0 mm 1,6 km/h (1 Bft) O-NO 67 12,7 C 4,4 km/h (1 Bft)
13.05.2015 17:40 17,3 C 17,1 C 76 % 1015,8 hPa 0,0 mm 2,8 km/h (1 Bft) O-SO 112 13,0 C 6,0 km/h (2 Bft)
13.05.2015 17:45 17,2 C 16,9 C 76 % 1015,8 hPa 0,0 mm 5,7 km/h (1 Bft) O-NO 67 12,9 C 18,6 km/h (3 Bft)
13.05.2015 17:50 17,1 C 16,6 C 75 % 1015,8 hPa 0,0 mm 6,7 km/h (2 Bft) W-SW 247 12,6 C 7,3 km/h (2 Bft)
13.05.2015 17:55 16,8 C 16,4 C 77 % 1015,3 hPa 0,0 mm 6,0 km/h (2 Bft) SO 135 12,7 C 0,0 km/h (0 Bft)
13.05.2015 18:00 16,6 C 16,2 C 80 % 1015,3 hPa 0,7 mm 3,1 km/h (1 Bft) N-NO 22 13,1 C 9,1 km/h (2 Bft)
13.05.2015 18:05 16,7 C 16,3 C 79 % 1015,3 hPa 0,0 mm 3,1 km/h (1 Bft) W 270 13,0 C 0,0 km/h (0 Bft)
13.05.2015 18:10 16,5 C 16,1 C 78 % 1015,3 hPa 0,0 mm 5,7 km/h (1 Bft) S-SW 202 12,6 C 3,6 km/h (1 Bft)
13.05.2015 18:15 16,3 C 15,9 C 78 % 1015,1 hPa 0,0 mm 3,1 km/h (1 Bft) O-SO 112 12,5 C 0,0 km/h (0 Bft)
13.05.2015 18:20 16,3 C 15,9 C 81 % 1015,1 hPa 0,0 mm 0,3 km/h (0 Bft) O-SO 112 13,0 C 0,0 km/h (0 Bft)
13.05.2015 18:25 16,2 C 15,9 C 81 % 1015,1 hPa 0,0 mm 0,0 km/h (0 Bft) S-SO 157 12,9 C 0,0 km/h (0 Bft)
13.05.2015 18:30 16,2 C 15,9 C 82 % 1015,1 hPa 0,0 mm 0,3 km/h (0 Bft) O-NO 67 13,1 C 0,0 km/h (0 Bft)
13.05.2015 18:35 16,1 C 15,8 C 82 % 1014,8 hPa 0,0 mm 0,5 km/h (0 Bft) S 180 13,0 C 4,4 km/h (1 Bft)
13.05.2015 18:40 16,2 C 15,9 C 82 % 1014,8 hPa 0,0 mm 0,8 km/h (0 Bft) S-SO 157 13,1 C 2,6 km/h (1 Bft)
13.05.2015 18:45 16,2 C 15,9 C 83 % 1014,8 hPa 0,0 mm 1,0 km/h (0 Bft) SO 135 13,3 C 2,8 km/h (1 Bft)
13.05.2015 18:50 16,2 C 16,0 C 79 % 1014,8 hPa 0,0 mm 1,8 km/h (1 Bft) SO 135 12,6 C 6,0 km/h (2 Bft)
13.05.2015 18:55 16,3 C 16,2 C 79 % 1014,3 hPa 0,0 mm 2,6 km/h (1 Bft) SO 135 12,6 C 0,0 km/h (0 Bft)
13.05.2015 19:00 16,5 C 16,5 C 79 % 1014,3 hPa 0,0 mm 1,3 km/h (1 Bft) O-SO 112 12,8 C 0,0 km/h (0 Bft)
13.05.2015 19:05 16,7 C 17,0 C 79 % 1014,3 hPa 0,0 mm 0,0 km/h (0 Bft) N 360 13,0 C 2,6 km/h (1 Bft)
13.05.2015 19:10 17,1 C 18,0 C 79 % 1014,3 hPa 0,0 mm 2,6 km/h (1 Bft) W-NW 292 13,4 C 3,6 km/h (1 Bft)
13.05.2015 19:15 17,3 C 18,4 C 78 % 1014,1 hPa 0,0 mm 3,1 km/h (1 Bft) S-SO 157 13,4 C 3,4 km/h (1 Bft)
13.05.2015 19:20 17,3 C 18,8 C 78 % 1014,1 hPa 0,0 mm 0,8 km/h (0 Bft) O-SO 112 13,4 C 0,0 km/h (0 Bft)
13.05.2015 19:25 17,3 C 19,1 C 80 % 1014,1 hPa 0,0 mm 0,5 km/h (0 Bft) SO 135 13,8 C 0,0 km/h (0 Bft)
13.05.2015 19:30 17,3 C 19,3 C 80 % 1014,1 hPa 0,0 mm 0,0 km/h (0 Bft) S 180 13,8 C 0,0 km/h (0 Bft)
13.05.2015 19:35 17,1 C 19,1 C 79 % 1013,4 hPa 0,0 mm 0,0 km/h (0 Bft) SO 135 13,4 C 0,0 km/h (0 Bft)
13.05.2015 19:40 16,8 C 18,3 C 79 % 1013,4 hPa 0,0 mm 0,0 km/h (0 Bft) S-SO 157 13,1 C 0,0 km/h (0 Bft)
13.05.2015 19:45 16,6 C 17,8 C 79 % 1013,4 hPa 0,0 mm 0,0 km/h (0 Bft) SO 135 12,9 C 0,0 km/h (0 Bft)
13.05.2015 19:50 16,5 C 17,2 C 80 % 1013,4 hPa 0,0 mm 0,0 km/h (0 Bft) SO 135 13,0 C 0,0 km/h (0 Bft)
13.05.2015 19:55 16,4 C 17,4 C 78 % 1013,1 hPa 0,0 mm 0,0 km/h (0 Bft) S-SO 157 12,6 C 0,0 km/h (0 Bft)
13.05.2015 20:00 16,3 C 17,3 C 78 % 1013,1 hPa 0,0 mm 0,0 km/h (0 Bft) S-SO 157 12,5 C 0,0 km/h (0 Bft)
13.05.2015 20:05 16,2 C 17,0 C 78 % 1013,1 hPa 0,0 mm 0,0 km/h (0 Bft) S-SO 157 12,4 C 0,0 km/h (0 Bft)
13.05.2015 20:10 15,9 C 16,4 C 80 % 1013,1 hPa 0,0 mm 0,5 km/h (0 Bft) S-SO 157 12,5 C 3,6 km/h (1 Bft)
13.05.2015 20:15 15,7 C 16,1 C 80 % 1012,7 hPa 0,0 mm 1,3 km/h (1 Bft) O-SO 112 12,3 C 0,0 km/h (0 Bft)
13.05.2015 20:20 15,1 C 15,4 C 79 % 1012,7 hPa 0,0 mm 1,0 km/h (0 Bft) O-SO 112 11,5 C 0,0 km/h (0 Bft)
13.05.2015 20:25 15,0 C 15,0 C 79 % 1012,7 hPa 0,0 mm 0,3 km/h (0 Bft) S 180 11,4 C 0,0 km/h (0 Bft)
13.05.2015 20:30 14,5 C 14,5 C 79 % 1012,7 hPa 0,0 mm 0,3 km/h (0 Bft) O-SO 112 10,9 C 0,0 km/h (0 Bft)
13.05.2015 20:35 14,5 C 14,4 C 79 % 1012,3 hPa 0,0 mm 0,3 km/h (0 Bft) S 180 10,9 C 0,0 km/h (0 Bft)
13.05.2015 20:40 14,2 C 14,2 C 78 % 1012,3 hPa 0,0 mm 0,0 km/h (0 Bft) SW 225 10,4 C 2,6 km/h (1 Bft)
13.05.2015 20:45 14,2 C 14,3 C 79 % 1012,3 hPa 0,0 mm 0,5 km/h (0 Bft) S-SO 157 10,6 C 3,1 km/h (1 Bft)
13.05.2015 20:50 14,3 C 14,5 C 80 % 1012,3 hPa 0,0 mm 1,8 km/h (1 Bft) S 180 10,9 C 6,0 km/h (2 Bft)
13.05.2015 20:55 14,3 C 14,4 C 80 % 1012,2 hPa 0,0 mm 3,1 km/h (1 Bft) SO 135 10,9 C 0,0 km/h (0 Bft)
13.05.2015 21:00 14,3 C 14,2 C 83 % 1012,2 hPa 0,0 mm 2,1 km/h (1 Bft) SO 135 11,5 C 0,0 km/h (0 Bft)
13.05.2015 21:05 14,1 C 14,0 C 83 % 1012,2 hPa 0,0 mm 0,8 km/h (0 Bft) O-SO 112 11,3 C 0,0 km/h (0 Bft)
13.05.2015 21:10 14,1 C 13,9 C 83 % 1012,2 hPa 0,0 mm 0,5 km/h (0 Bft) S-SW 202 11,3 C 2,8 km/h (1 Bft)
13.05.2015 21:15 14,0 C 13,8 C 84 % 1011,8 hPa 0,0 mm 0,0 km/h (0 Bft) O-SO 112 11,3 C 0,0 km/h (0 Bft)
13.05.2015 21:20 13,8 C 13,6 C 84 % 1011,8 hPa 0,0 mm 0,0 km/h (0 Bft) O-NO 67 11,1 C 0,0 km/h (0 Bft)
13.05.2015 21:25 13,8 C 13,6 C 84 % 1011,8 hPa 0,0 mm 0,0 km/h (0 Bft) S-SO 157 11,1 C 0,0 km/h (0 Bft)
13.05.2015 21:30 13,7 C 13,6 C 82 % 1011,8 hPa 0,0 mm 0,0 km/h (0 Bft) SO 135 10,7 C 0,0 km/h (0 Bft)
13.05.2015 21:35 13,8 C 13,7 C 82 % 1011,6 hPa 0,0 mm 0,3 km/h (0 Bft) SO 135 10,8 C 0,0 km/h (0 Bft)
13.05.2015 21:40 14,0 C 13,7 C 86 % 1011,6 hPa 0,0 mm 0,5 km/h (0 Bft) O-SO 112 11,7 C 0,0 km/h (0 Bft)
13.05.2015 21:45 13,8 C 13,6 C 85 % 1011,6 hPa 0,0 mm 0,3 km/h (0 Bft) O-SO 112 11,3 C 0,0 km/h (0 Bft)
13.05.2015 21:50 13,9 C 13,7 C 82 % 1011,6 hPa 0,0 mm 0,5 km/h (0 Bft) SO 135 10,9 C 0,0 km/h (0 Bft)
13.05.2015 21:55 13,8 C 13,6 C 85 % 1010,9 hPa 0,0 mm 1,0 km/h (0 Bft) W 270 11,3 C 8,3 km/h (2 Bft)
13.05.2015 22:00 13,7 C 13,5 C 86 % 1010,9 hPa 0,0 mm 1,8 km/h (1 Bft) SO 135 11,4 C 3,1 km/h (1 Bft)
13.05.2015 22:05 13,7 C 13,5 C 86 % 1010,9 hPa 0,0 mm 1,8 km/h (1 Bft) O-SO 112 11,4 C 0,0 km/h (0 Bft)
13.05.2015 22:10 13,5 C 13,3 C 86 % 1010,9 hPa 0,0 mm 0,3 km/h (0 Bft) W-SW 247 11,2 C 0,0 km/h (0 Bft)
13.05.2015 22:15 13,9 C 13,7 C 86 % 1010,4 hPa 0,0 mm 1,8 km/h (1 Bft) O-SO 112 11,6 C 3,1 km/h (1 Bft)
13.05.2015 22:20 13,7 C 13,6 C 85 % 1010,4 hPa 0,0 mm 1,8 km/h (1 Bft) SO 135 11,2 C 0,0 km/h (0 Bft)
13.05.2015 22:25 14,1 C 13,9 C 85 % 1010,4 hPa 0,0 mm 2,3 km/h (1 Bft) S-SW 202 11,6 C 0,0 km/h (0 Bft)
13.05.2015 22:30 14,5 C 14,4 C 83 % 1010,4 hPa 0,0 mm 5,4 km/h (1 Bft) S 180 11,6 C 9,6 km/h (2 Bft)
13.05.2015 22:35 14,6 C 14,5 C 83 % 1011,3 hPa 0,0 mm 5,4 km/h (1 Bft) W-SW 247 11,7 C 3,1 km/h (1 Bft)
13.05.2015 22:40 15,3 C 15,2 C 80 % 1011,3 hPa 0,0 mm 8,8 km/h (2 Bft) SW 225 11,9 C 17,3 km/h (3 Bft)
13.05.2015 22:45 15,6 C 15,6 C 78 % 1011,3 hPa 0,0 mm 9,6 km/h (2 Bft) S-SW 202 11,8 C 7,5 km/h (2 Bft)
13.05.2015 22:50 15,9 C 16,0 C 76 % 1011,3 hPa 0,0 mm 7,3 km/h (2 Bft) W-NW 292 11,7 C 9,3 km/h (2 Bft)
13.05.2015 22:55 15,6 C 16,0 C 76 % 1012,0 hPa 0,0 mm 5,2 km/h (1 Bft) W 270 11,4 C 8,0 km/h (2 Bft)
13.05.2015 23:00 15,4 C 15,6 C 76 % 1012,0 hPa 0,0 mm 5,4 km/h (1 Bft) W-SW 247 11,2 C 14,2 km/h (3 Bft)
13.05.2015 23:05 16,2 C 16,3 C 73 % 1012,0 hPa 0,0 mm 7,5 km/h (2 Bft) SW 225 11,4 C 25,9 km/h (4 Bft)
13.05.2015 23:10 17,2 C 17,2 C 70 % 1012,0 hPa 0,0 mm 9,8 km/h (2 Bft) W-SW 247 11,7 C 12,4 km/h (3 Bft)
13.05.2015 23:15 17,3 C 17,3 C 68 % 1012,0 hPa 0,0 mm 9,6 km/h (2 Bft) W 270 11,3 C 4,7 km/h (1 Bft)
13.05.2015 23:20 17,3 C 17,4 C 66 % 1012,0 hPa 0,0 mm 8,5 km/h (2 Bft) W 270 10,9 C 5,4 km/h (1 Bft)
13.05.2015 23:25 17,3 C 17,5 C 66 % 1012,0 hPa 0,0 mm 8,0 km/h (2 Bft) S 180 10,9 C 4,9 km/h (1 Bft)
13.05.2015 23:30 17,3 C 17,3 C 65 % 1012,0 hPa 0,0 mm 7,5 km/h (2 Bft) W-SW 247 10,7 C 23,3 km/h (4 Bft)
13.05.2015 23:35 17,5 C 17,5 C 63 % 1012,0 hPa 0,0 mm 9,1 km/h (2 Bft) S 180 10,4 C 5,4 km/h (1 Bft)
13.05.2015 23:40 17,4 C 17,5 C 62 % 1012,0 hPa 0,0 mm 11,7 km/h (2 Bft) W 270 10,0 C 16,3 km/h (3 Bft)
13.05.2015 23:45 17,5 C 17,5 C 60 % 1012,0 hPa 0,0 mm 11,1 km/h (2 Bft) S 180 9,6 C 10,9 km/h (2 Bft)
13.05.2015 23:50 18,4 C 18,3 C 55 % 1012,0 hPa 0,0 mm 17,3 km/h (3 Bft) W-NW 292 9,2 C 76,6 km/h (9 Bft)
13.05.2015 23:55 18,3 C 18,2 C 55 % 1011,2 hPa 0,0 mm 17,6 km/h (3 Bft) S 180 9,1 C 7,5 km/h (2 Bft)
_ Min-Zeit 05:40 05:45 02:25 22:30 - 21:30 - - 00:50 22:25
Minimum _ 12,4 C 12,4 C 46 % 1010,4 hPa - 0,0 km/h (0 Bft) - - 4,8 C 0,0 km/h (0 Bft)
_ Max-Zeit 14:55 14:55 22:15 03:50 18:00 13:25 - - 12:50 23:50
Maximum _ 25,1 C 28,2 C 86 % 1020,9 hPa 0,7 mm 17,9 km/h
N-NW (3 Bft)
- - 14,4 C 76,6 km/h
W-NW (9 Bft)
Durchschnitt _ 17,6 C 19,0 C 66 % 1017,7 hPa #0,7 mm 4,6 km/h (1 Bft) W-NW - 10,9 C 6,4 km/h (2 Bft)